createdAt,value
2019-05-01T00:01:18.921Z,31.85
2019-05-01T00:04:05.186Z,34.98
2019-05-01T00:06:38.345Z,32.15
2019-05-01T00:09:10.028Z,32.35
2019-05-01T00:11:38.703Z,34.03
2019-05-01T00:14:08.847Z,29.65
2019-05-01T00:16:37.393Z,30.43
2019-05-01T00:19:06.140Z,31.33
2019-05-01T00:21:34.762Z,35.92
2019-05-01T00:24:03.395Z,36.35
2019-05-01T00:26:31.876Z,35.25
2019-05-01T00:29:00.456Z,35.38
2019-05-01T00:31:29.016Z,40.83
2019-05-01T00:33:57.584Z,35.68
2019-05-01T00:36:26.052Z,34.80
2019-05-01T00:38:54.624Z,34.40
2019-05-01T00:41:23.097Z,35.00
2019-05-01T00:43:51.677Z,33.30
2019-05-01T00:46:20.295Z,33.05
2019-05-01T00:48:48.792Z,28.52
2019-05-01T00:51:17.267Z,35.95
2019-05-01T00:53:45.843Z,35.90
2019-05-01T00:56:18.693Z,36.08
2019-05-01T00:58:51.570Z,33.85
2019-05-01T01:01:37.820Z,35.80
2019-05-01T01:04:06.484Z,42.00
2019-05-01T01:06:35.020Z,37.10
2019-05-01T01:09:05.188Z,36.42
2019-05-01T01:11:33.656Z,38.92
2019-05-01T01:14:02.153Z,37.83
2019-05-01T01:16:30.756Z,34.35
2019-05-01T01:18:59.290Z,36.77
2019-05-01T01:21:27.837Z,34.88
2019-05-01T01:23:56.969Z,33.73
2019-05-01T01:26:25.516Z,37.50
2019-05-01T01:28:54.084Z,33.15
2019-05-01T01:31:22.618Z,35.60
2019-05-01T01:33:51.193Z,37.55
2019-05-01T01:36:19.736Z,32.08
2019-05-01T01:38:48.301Z,35.88
2019-05-01T01:41:16.916Z,35.55
2019-05-01T01:43:47.469Z,38.92
2019-05-01T01:46:17.577Z,35.68
2019-05-01T01:48:46.246Z,31.70
2019-05-01T01:51:14.932Z,34.85
2019-05-01T01:53:43.505Z,32.70
2019-05-01T01:56:12.196Z,35.05
2019-05-01T01:58:40.947Z,35.88
2019-05-01T02:01:13.910Z,35.35
2019-05-01T02:03:46.472Z,38.02
2019-05-01T02:06:15.190Z,36.75
2019-05-01T02:08:55.727Z,37.93
2019-05-01T02:11:14.012Z,36.25
2019-05-01T02:13:42.933Z,34.23
2019-05-01T02:16:11.513Z,40.65
2019-05-01T02:18:40.058Z,36.53
2019-05-01T02:21:08.568Z,39.88
2019-05-01T02:23:37.115Z,44.95
2019-05-01T02:26:06.648Z,47.55
2019-05-01T02:28:48.848Z,42.95
2019-05-01T02:31:28.087Z,43.87
2019-05-01T02:33:54.642Z,43.23
2019-05-01T02:36:25.514Z,46.65
2019-05-01T02:38:56.785Z,40.40
2019-05-01T02:41:28.418Z,48.35
2019-05-01T02:44:00.063Z,34.95
2019-05-01T02:46:30.772Z,37.53
2019-05-01T02:49:02.400Z,109.12
2019-05-01T02:51:31.263Z,210.05
2019-05-01T02:54:00.836Z,185.75
2019-05-01T02:56:34.013Z,257.00
2019-05-01T02:59:04.386Z,99.67
2019-05-01T03:01:46.692Z,80.30
2019-05-01T03:04:06.765Z,59.40
2019-05-01T03:06:36.573Z,94.35
2019-05-01T03:09:07.565Z,81.75
2019-05-01T03:11:39.420Z,70.08
2019-05-01T03:14:11.054Z,65.83
2019-05-01T03:16:39.641Z,65.42
2019-05-01T03:19:13.619Z,59.77
2019-05-01T03:21:49.969Z,57.05
2019-05-01T03:24:20.627Z,50.73
2019-05-01T03:26:50.143Z,43.23
2019-05-01T03:29:18.824Z,45.45
2019-05-01T03:32:14.130Z,42.88
2019-05-01T03:34:17.760Z,38.53
2019-05-01T03:36:46.457Z,42.38
2019-05-01T03:39:15.986Z,37.03
2019-05-01T03:41:45.896Z,36.17
2019-05-01T03:44:15.402Z,35.15
2019-05-01T03:46:44.113Z,37.98
2019-05-01T03:49:13.206Z,36.33
2019-05-01T03:51:41.922Z,37.20
2019-05-01T03:54:10.913Z,35.05
2019-05-01T03:56:39.591Z,36.85
2019-05-01T03:59:09.357Z,35.52
2019-05-01T04:01:40.003Z,33.90
2019-05-01T04:04:16.398Z,37.17
2019-05-01T04:06:45.397Z,36.77
2019-05-01T04:09:13.950Z,38.70
2019-05-01T04:11:42.597Z,42.73
2019-05-01T04:14:11.492Z,36.95
2019-05-01T04:16:42.440Z,34.85
2019-05-01T04:19:11.730Z,33.85
2019-05-01T04:21:45.174Z,34.45
2019-05-01T04:24:14.074Z,31.15
2019-05-01T04:26:42.715Z,32.23
2019-05-01T04:29:16.243Z,32.38
2019-05-01T04:31:55.699Z,28.12
2019-05-01T04:34:37.813Z,27.77
2019-05-01T04:37:10.611Z,25.80
2019-05-01T04:42:06.942Z,28.95
2019-05-01T04:44:35.687Z,24.80
2019-05-01T04:47:04.502Z,23.27
2019-05-01T04:49:33.121Z,26.33
2019-05-01T04:52:02.655Z,23.42
2019-05-01T04:54:31.385Z,24.90
2019-05-01T04:57:00.122Z,24.65
2019-05-01T04:59:28.764Z,23.62
2019-05-01T05:02:04.878Z,25.05
2019-05-01T05:04:34.122Z,22.10
2019-05-01T05:07:02.853Z,22.85
2019-05-01T05:09:45.283Z,23.07
2019-05-01T05:12:19.567Z,23.22
2019-05-01T05:15:02.030Z,24.90
2019-05-01T05:17:31.049Z,22.45
2019-05-01T05:19:59.717Z,20.88
2019-05-01T05:22:28.547Z,21.37
2019-05-01T05:24:57.190Z,22.58
2019-05-01T05:27:26.023Z,23.77
2019-05-01T05:29:57.127Z,23.35
2019-05-01T05:32:28.693Z,23.60
2019-05-01T05:34:59.279Z,23.20
2019-05-01T05:37:31.278Z,25.10
2019-05-01T05:40:01.398Z,27.27
2019-05-01T05:42:30.593Z,25.35
2019-05-01T05:44:59.596Z,22.90
2019-05-01T05:47:28.094Z,23.77
2019-05-01T05:49:57.197Z,25.15
2019-05-01T05:52:40.750Z,24.82
2019-05-01T05:55:27.321Z,27.00
2019-05-01T05:57:59.076Z,25.17
2019-05-01T06:00:46.823Z,22.40
2019-05-01T06:03:35.573Z,25.32
2019-05-01T06:06:09.837Z,22.60
2019-05-01T06:08:41.702Z,24.98
2019-05-01T06:11:33.922Z,22.90
2019-05-01T06:14:10.896Z,22.15
2019-05-01T06:16:46.986Z,25.05
2019-05-01T06:19:25.618Z,21.97
2019-05-01T06:22:13.660Z,21.85
2019-05-01T06:24:46.681Z,23.62
2019-05-01T06:27:16.386Z,26.10
2019-05-01T06:29:45.033Z,21.77
2019-05-01T06:32:17.655Z,23.47
2019-05-01T06:34:46.360Z,24.77
2019-05-01T06:37:15.019Z,22.02
2019-05-01T06:39:48.125Z,22.87
2019-05-01T06:42:15.297Z,21.90
2019-05-01T06:44:46.661Z,22.73
2019-05-01T06:47:38.328Z,21.85
2019-05-01T06:50:11.475Z,25.45
2019-05-01T06:52:40.687Z,22.13
2019-05-01T06:55:09.546Z,20.75
2019-05-01T06:57:43.963Z,21.20
2019-05-01T07:00:11.337Z,22.52
2019-05-01T07:02:40.238Z,20.92
2019-05-01T07:05:14.442Z,20.90
2019-05-01T07:07:39.834Z,20.70
2019-05-01T07:10:08.544Z,22.70
2019-05-01T07:12:38.180Z,23.10
2019-05-01T07:15:07.454Z,19.87
2019-05-01T07:17:36.255Z,22.82
2019-05-01T07:20:18.174Z,22.07
2019-05-01T07:22:47.562Z,27.35
2019-05-01T07:25:16.677Z,23.38
2019-05-01T07:27:45.277Z,21.68
2019-05-01T07:30:20.767Z,20.55
2019-05-01T07:32:49.654Z,20.37
2019-05-01T07:35:18.288Z,21.85
2019-05-01T07:37:47.041Z,21.23
2019-05-01T07:40:20.799Z,21.80
2019-05-01T07:42:58.334Z,23.55
2019-05-01T07:45:44.753Z,22.17
2019-05-01T07:48:14.404Z,16.32
2019-05-01T07:50:43.193Z,20.97
2019-05-01T07:53:11.934Z,15.58
2019-05-01T07:55:40.646Z,17.77
2019-05-01T07:58:16.016Z,16.37
2019-05-01T08:01:05.098Z,17.35
2019-05-01T08:03:38.074Z,19.55
2019-05-01T08:06:04.219Z,17.87
2019-05-01T08:08:33.711Z,17.45
2019-05-01T08:11:04.979Z,19.42
2019-05-01T08:13:34.974Z,16.70
2019-05-01T08:16:07.018Z,17.98
2019-05-01T08:18:36.165Z,18.75
2019-05-01T08:21:12.414Z,16.07
2019-05-01T08:23:42.642Z,16.87
2019-05-01T08:26:11.472Z,19.65
2019-05-01T08:28:44.134Z,19.62
2019-05-01T08:31:22.959Z,18.42
2019-05-01T08:33:57.390Z,17.75
2019-05-01T08:36:26.036Z,17.30
2019-05-01T08:38:54.758Z,15.98
2019-05-01T08:41:27.082Z,16.60
2019-05-01T08:43:55.744Z,13.13
2019-05-01T08:46:34.571Z,16.77
2019-05-01T08:49:11.669Z,15.08
2019-05-01T08:51:41.135Z,13.35
2019-05-01T08:54:09.742Z,12.85
2019-05-01T08:56:38.441Z,14.13
2019-05-01T08:59:07.185Z,14.40
2019-05-01T09:01:35.770Z,13.35
2019-05-01T09:04:12.688Z,16.30
2019-05-01T09:06:39.103Z,14.78
2019-05-01T09:09:08.362Z,14.98
2019-05-01T09:11:38.016Z,13.65
2019-05-01T09:14:06.593Z,14.15
2019-05-01T09:16:35.166Z,14.65
2019-05-01T09:19:03.849Z,14.80
2019-05-01T09:21:33.214Z,15.08
2019-05-01T09:24:02.657Z,16.52
2019-05-01T09:26:45.333Z,15.35
2019-05-01T09:29:16.129Z,14.68
2019-05-01T09:31:44.140Z,15.23
2019-05-01T09:34:14.018Z,17.17
2019-05-01T09:36:43.075Z,12.47
2019-05-01T09:39:13.042Z,13.95
2019-05-01T09:41:43.162Z,12.73
2019-05-01T09:44:12.153Z,15.83
2019-05-01T09:46:43.515Z,16.67
2019-05-01T09:49:14.348Z,11.45
2019-05-01T09:51:49.171Z,13.85
2019-05-01T09:54:30.879Z,13.40
2019-05-01T09:56:59.459Z,13.08
2019-05-01T09:59:28.161Z,14.95
2019-05-01T10:01:56.701Z,15.75
2019-05-01T10:04:30.025Z,14.18
2019-05-01T10:06:55.510Z,11.75
2019-05-01T10:09:26.590Z,12.82
2019-05-01T10:11:54.337Z,13.13
2019-05-01T10:14:23.286Z,13.15
2019-05-01T10:16:51.853Z,14.05
2019-05-01T10:19:20.465Z,19.00
2019-05-01T10:21:49.026Z,12.95
2019-05-01T10:24:17.615Z,13.80
2019-05-01T10:26:47.819Z,14.85
2019-05-01T10:29:27.622Z,14.03
2019-05-01T10:31:57.830Z,11.65
2019-05-01T10:34:28.097Z,11.88
2019-05-01T10:36:56.648Z,15.63
2019-05-01T10:39:25.261Z,12.63
2019-05-01T10:41:53.809Z,13.75
2019-05-01T10:44:22.338Z,13.43
2019-05-01T10:46:50.899Z,16.10
2019-05-01T10:49:19.485Z,13.28
2019-05-01T10:51:47.985Z,12.65
2019-05-01T10:54:16.561Z,13.05
2019-05-01T10:56:45.117Z,12.70
2019-05-01T10:59:13.628Z,14.43
2019-05-01T11:01:52.599Z,14.53
2019-05-01T11:04:21.254Z,13.15
2019-05-01T11:06:49.805Z,13.60
2019-05-01T11:09:18.298Z,16.75
2019-05-01T11:11:49.197Z,16.65
2019-05-01T11:14:19.300Z,13.93
2019-05-01T11:16:47.892Z,17.12
2019-05-01T11:19:16.517Z,11.45
2019-05-01T11:21:45.179Z,11.85
2019-05-01T11:24:13.673Z,12.40
2019-05-01T11:26:42.333Z,15.35
2019-05-01T11:29:10.881Z,13.05
2019-05-01T11:31:41.122Z,13.03
2019-05-01T11:34:29.286Z,16.48
2019-05-01T11:37:14.728Z,16.50
2019-05-01T11:39:45.151Z,13.85
2019-05-01T11:42:15.061Z,17.32
2019-05-01T11:44:43.632Z,12.35
2019-05-01T11:47:12.401Z,9.73
2019-05-01T11:49:41.052Z,12.58
2019-05-01T11:52:09.747Z,12.37
2019-05-01T11:54:38.423Z,11.30
2019-05-01T11:57:07.048Z,12.43
2019-05-01T11:59:35.651Z,11.28
2019-05-01T12:02:04.424Z,11.15
2019-05-01T12:04:33.034Z,9.35
2019-05-01T12:07:01.711Z,13.72
2019-05-01T12:09:33.019Z,18.57
2019-05-01T12:12:03.344Z,11.93
2019-05-01T12:14:31.971Z,11.22
2019-05-01T12:17:04.849Z,11.78
2019-05-01T12:19:34.319Z,12.47
2019-05-01T12:22:04.922Z,15.25
2019-05-01T12:24:33.507Z,11.97
2019-05-01T12:27:02.213Z,11.80
2019-05-01T12:29:30.857Z,10.00
2019-05-01T12:31:59.453Z,12.15
2019-05-01T12:34:29.742Z,13.05
2019-05-01T12:37:17.936Z,13.25
2019-05-01T12:39:46.656Z,9.75
2019-05-01T12:42:16.983Z,14.28
2019-05-01T12:44:47.144Z,11.00
2019-05-01T12:47:17.439Z,27.75
2019-05-01T12:50:11.521Z,10.75
2019-05-01T12:52:47.473Z,14.15
2019-05-01T12:55:34.026Z,11.48
2019-05-01T12:58:02.596Z,9.60
2019-05-01T13:00:42.832Z,10.25
2019-05-01T13:03:12.013Z,12.03
2019-05-01T13:05:42.642Z,16.30
2019-05-01T13:08:11.331Z,11.05
2019-05-01T13:10:39.966Z,10.40
2019-05-01T13:13:11.014Z,12.75
2019-05-01T13:15:38.754Z,6.97
2019-05-01T13:18:07.332Z,12.63
2019-05-01T13:20:36.245Z,14.93
2019-05-01T13:38:17.678Z,15.45
2019-05-01T13:47:43.375Z,7.47
2019-05-01T13:50:20.843Z,8.63
2019-05-01T13:52:49.492Z,8.13
2019-05-01T13:55:18.252Z,9.88
2019-05-01T13:57:46.808Z,6.62
2019-05-01T14:11:44.737Z,8.98
2019-05-01T14:14:25.447Z,10.45
2019-05-01T14:16:54.114Z,12.90
2019-05-01T14:19:22.690Z,12.60
2019-05-01T14:21:55.926Z,6.70
2019-05-01T14:24:43.988Z,7.47
2019-05-01T14:27:12.545Z,9.73
2019-05-01T14:29:41.050Z,8.25
2019-05-01T14:32:09.686Z,11.50
2019-05-01T14:34:38.261Z,6.50
2019-05-01T14:37:06.751Z,6.80
2019-05-01T14:39:35.398Z,8.93
2019-05-01T14:42:04.028Z,11.43
2019-05-01T14:44:36.836Z,10.13
2019-05-01T14:47:02.837Z,10.35
2019-05-01T14:49:31.425Z,73.28
2019-05-01T14:51:59.919Z,32.20
2019-05-01T14:54:28.503Z,8.88
2019-05-01T14:56:57.068Z,8.78
2019-05-01T14:59:25.654Z,13.43
2019-05-01T15:01:54.292Z,6.92
2019-05-01T15:04:22.910Z,10.15
2019-05-01T15:06:51.454Z,7.70
2019-05-01T15:09:20.111Z,11.83
2019-05-01T15:11:48.668Z,8.08
2019-05-01T15:14:24.535Z,9.45
2019-05-01T15:16:57.173Z,11.38
2019-05-01T15:19:27.393Z,9.58
2019-05-01T15:21:55.960Z,9.38
2019-05-01T15:24:24.543Z,10.63
2019-05-01T15:26:53.102Z,7.75
2019-05-01T15:29:21.686Z,10.18
2019-05-01T15:31:50.249Z,9.68
2019-05-01T15:34:18.825Z,8.63
2019-05-01T15:36:47.373Z,8.33
2019-05-01T15:39:23.266Z,9.05
2019-05-01T15:42:11.291Z,12.30
2019-05-01T15:44:41.510Z,12.03
2019-05-01T15:47:10.068Z,10.08
2019-05-01T15:49:38.645Z,7.80
2019-05-01T15:52:07.140Z,7.78
2019-05-01T15:54:35.718Z,8.15
2019-05-01T15:57:04.848Z,6.80
2019-05-01T15:59:33.434Z,10.35
2019-05-01T16:02:01.995Z,7.33
2019-05-01T16:04:30.562Z,9.35
2019-05-01T16:06:59.146Z,8.85
2019-05-01T16:09:27.851Z,7.70
2019-05-01T16:12:15.885Z,10.08
2019-05-01T16:14:45.519Z,10.85
2019-05-01T16:17:14.080Z,9.30
2019-05-01T16:19:42.689Z,7.60
2019-05-01T16:22:11.277Z,9.78
2019-05-01T16:24:39.842Z,7.03
2019-05-01T16:27:08.438Z,8.68
2019-05-01T16:29:37.010Z,7.55
2019-05-01T16:32:05.904Z,9.43
2019-05-01T16:34:34.463Z,9.78
2019-05-01T16:37:03.033Z,6.62
2019-05-01T16:39:49.352Z,9.15
2019-05-01T16:42:18.185Z,7.53
2019-05-01T16:44:46.753Z,7.58
2019-05-01T16:47:15.401Z,9.90
2019-05-01T16:49:43.958Z,8.25
2019-05-01T16:52:13.093Z,7.85
2019-05-01T16:54:41.663Z,7.20
2019-05-01T16:57:11.897Z,11.70
2019-05-01T16:59:40.466Z,7.20
2019-05-01T17:02:13.262Z,6.12
2019-05-01T17:04:55.639Z,10.53
2019-05-01T17:07:31.933Z,8.83
2019-05-01T17:10:14.246Z,7.65
2019-05-01T17:12:50.631Z,8.13
2019-05-01T17:15:27.603Z,10.32
2019-05-01T17:17:56.145Z,6.55
2019-05-01T17:20:24.749Z,9.70
2019-05-01T17:22:53.345Z,10.45
2019-05-01T17:25:21.899Z,10.50
2019-05-01T17:27:50.558Z,9.35
2019-05-01T17:30:23.834Z,6.97
2019-05-01T17:32:52.417Z,10.35
2019-05-01T17:35:20.974Z,6.70
2019-05-01T17:37:49.563Z,7.12
2019-05-01T17:40:18.189Z,9.88
2019-05-01T17:42:46.790Z,5.72
2019-05-01T17:45:15.497Z,9.75
2019-05-01T17:47:44.081Z,6.45
2019-05-01T17:50:16.509Z,10.75
2019-05-01T17:52:43.333Z,10.75
2019-05-01T17:55:11.958Z,8.93
2019-05-01T17:57:40.541Z,9.68
2019-05-01T18:00:16.738Z,8.88
2019-05-01T18:02:52.629Z,6.40
2019-05-01T18:05:25.543Z,7.47
2019-05-01T18:10:22.003Z,8.85
2019-05-01T18:12:50.590Z,17.70
2019-05-01T18:15:19.214Z,14.43
2019-05-01T18:17:47.879Z,24.92
2019-05-01T18:20:16.641Z,18.92
2019-05-01T18:22:46.539Z,18.55
2019-05-01T18:25:16.818Z,21.40
2019-05-01T18:27:49.789Z,15.18
2019-05-01T18:30:20.557Z,14.03
2019-05-01T18:32:52.077Z,11.20
2019-05-01T18:35:18.306Z,7.92
2019-05-01T18:37:57.694Z,14.30
2019-05-01T18:40:27.976Z,9.85
2019-05-01T18:42:56.626Z,9.95
2019-05-01T18:45:36.965Z,10.60
2019-05-01T18:48:05.634Z,12.55
2019-05-01T18:50:34.473Z,11.35
2019-05-01T18:53:06.793Z,9.88
2019-05-01T18:55:33.268Z,11.95
2019-05-01T18:58:01.861Z,10.48
2019-05-01T19:00:30.444Z,10.80
2019-05-01T19:02:59.585Z,8.70
2019-05-01T19:05:29.373Z,12.00
2019-05-01T19:07:57.962Z,10.05
2019-05-01T19:10:26.598Z,9.95
2019-05-01T19:12:55.249Z,12.88
2019-05-01T19:15:25.516Z,10.93
2019-05-01T19:17:54.319Z,14.73
2019-05-01T19:20:22.942Z,10.60
2019-05-01T19:22:51.522Z,12.18
2019-05-01T19:25:20.093Z,12.98
2019-05-01T19:27:48.694Z,19.52
2019-05-01T19:30:17.794Z,12.90
2019-05-01T19:32:46.468Z,12.60
2019-05-01T19:35:15.165Z,17.82
2019-05-01T19:37:43.748Z,17.02
2019-05-01T19:40:12.769Z,17.20
2019-05-01T19:42:41.417Z,10.23
2019-05-01T19:45:10.312Z,12.13
2019-05-01T19:47:38.958Z,13.85
2019-05-01T19:50:09.660Z,10.32
2019-05-01T19:52:39.893Z,13.05
2019-05-01T19:55:08.735Z,12.15
2019-05-01T19:57:37.301Z,12.55
2019-05-01T20:00:07.006Z,11.50
2019-05-01T20:02:35.526Z,12.05
2019-05-01T20:05:06.537Z,13.43
2019-05-01T20:07:35.174Z,13.90
2019-05-01T20:10:06.439Z,12.15
2019-05-01T20:12:35.013Z,14.28
2019-05-01T20:15:04.715Z,12.07
2019-05-01T20:17:33.377Z,10.10
2019-05-01T20:20:01.931Z,10.58
2019-05-01T20:22:30.498Z,11.85
2019-05-01T20:24:59.091Z,10.45
2019-05-01T20:27:27.879Z,12.00
2019-05-01T20:29:56.425Z,12.10
2019-05-01T20:32:26.177Z,15.43
2019-05-01T20:34:55.227Z,14.58
2019-05-01T20:37:23.796Z,12.53
2019-05-01T20:39:52.362Z,14.07
2019-05-01T20:42:20.910Z,12.70
2019-05-01T20:44:49.480Z,11.68
2019-05-01T20:47:34.141Z,11.70
2019-05-01T20:49:48.204Z,12.47
2019-05-01T20:52:16.768Z,12.88
2019-05-01T20:54:45.361Z,14.73
2019-05-01T20:57:20.794Z,12.18
2019-05-01T20:59:48.181Z,17.67
2019-05-01T21:02:16.007Z,14.10
2019-05-01T21:04:52.091Z,11.05
2019-05-01T21:07:22.400Z,13.72
2019-05-01T21:09:57.615Z,17.75
2019-05-01T21:12:23.072Z,13.30
2019-05-01T21:14:51.669Z,12.88
2019-05-01T21:17:20.269Z,15.95
2019-05-01T21:19:48.856Z,12.73
2019-05-01T21:22:17.420Z,15.40
2019-05-01T21:24:46.018Z,14.25
2019-05-01T21:27:14.579Z,15.45
2019-05-01T21:29:44.509Z,15.70
2019-05-01T21:32:13.679Z,16.75
2019-05-01T21:34:43.549Z,13.18
2019-05-01T21:37:12.189Z,16.48
2019-05-01T21:39:40.772Z,14.40
2019-05-01T21:42:11.773Z,14.18
2019-05-01T21:44:39.556Z,13.38
2019-05-01T21:47:08.125Z,13.85
2019-05-01T21:49:36.697Z,14.83
2019-05-01T21:52:07.340Z,17.32
2019-05-01T21:54:35.986Z,15.65
2019-05-01T21:57:04.614Z,15.80
2019-05-01T21:59:35.196Z,13.65
2019-05-01T22:02:05.515Z,15.32
2019-05-01T22:04:33.875Z,12.73
2019-05-01T22:07:02.434Z,14.60
2019-05-01T22:09:31.093Z,14.58
2019-05-01T22:11:59.654Z,12.10
2019-05-01T22:14:31.077Z,13.80
2019-05-01T22:17:00.923Z,18.17
2019-05-01T22:19:30.253Z,18.10
2019-05-01T22:22:14.914Z,18.62
2019-05-01T22:24:45.151Z,20.30
2019-05-01T22:27:21.270Z,19.45
2019-05-01T22:29:56.938Z,19.45
2019-05-01T22:32:27.701Z,17.35
2019-05-01T22:35:03.749Z,19.27
2019-05-01T22:37:32.378Z,16.27
2019-05-01T22:40:05.665Z,15.25
2019-05-01T22:42:34.299Z,19.10
2019-05-01T22:45:03.323Z,17.00
2019-05-01T22:47:31.894Z,17.82
2019-05-01T22:50:00.482Z,19.48
2019-05-01T22:52:29.039Z,13.53
2019-05-01T22:54:57.634Z,16.77
2019-05-01T22:57:26.198Z,23.92
2019-05-01T22:59:54.711Z,14.50
2019-05-01T23:02:28.365Z,14.98
2019-05-01T23:04:55.278Z,16.60
2019-05-01T23:07:23.970Z,16.60
2019-05-01T23:09:52.556Z,14.28
2019-05-01T23:12:21.124Z,16.02
2019-05-01T23:14:49.784Z,16.45
2019-05-01T23:17:20.004Z,13.40
2019-05-01T23:19:48.569Z,14.38
2019-05-01T23:22:17.418Z,14.15
2019-05-01T23:24:45.973Z,14.33
2019-05-01T23:27:14.496Z,13.72
2019-05-01T23:29:43.034Z,16.65
2019-05-01T23:32:11.785Z,15.05
2019-05-01T23:34:40.354Z,13.00
2019-05-01T23:37:09.070Z,17.12
2019-05-01T23:39:40.255Z,14.73
2019-05-01T23:42:08.002Z,14.05
2019-05-01T23:44:38.195Z,13.20
2019-05-01T23:47:06.778Z,13.95
2019-05-01T23:49:35.339Z,16.12
2019-05-01T23:52:05.218Z,15.55
2019-05-01T23:54:33.850Z,14.50
2019-05-01T23:57:02.438Z,13.60
2019-05-01T23:59:31.023Z,12.65
